Arkansaw, Wisconsin
Current Conditions -  °F | °C
As of 11:35 PM on Monday 26 Jan 2015 (Local Time) from KLUM Reporting Station
Haze Haze  
Wind Chill: 31°   Ceiling: 1100
Heat Index: 31°   Visibility: 5mi
Dew Point: 29°   Wind: 0mph
Humidity: 93%   Direction: NA
Pressure: 29.95"   Gusts: NA
Location:  44.63°N, 92.03°W
Report Text: KLUM 270535Z AUTO 00000KT 5SM BR OVC011 00/M01 A2995 RMK AO2 T10051015
Loading
Personal Weather Stations






























Interactive Weather Map New forecast layout! Learn more

10-Day Weather Forecast

Advertisements
Track Severe Weather on mobile